sensor_id;sensor_type;location;lat;lon;timestamp;P1;durP1;ratioP1;P2;durP2;ratioP2
39078;SDS011;24829;49.208;12.080;2023-06-14T00:00:06;5.30;;;2.45;;
39078;SDS011;24829;49.208;12.080;2023-06-14T00:02:32;4.18;;;2.40;;
39078;SDS011;24829;49.208;12.080;2023-06-14T00:04:58;6.68;;;2.53;;
39078;SDS011;24829;49.208;12.080;2023-06-14T00:07:33;4.15;;;2.38;;
39078;SDS011;24829;49.208;12.080;2023-06-14T00:10:03;5.63;;;2.67;;
39078;SDS011;24829;49.208;12.080;2023-06-14T00:12:29;7.10;;;2.35;;
39078;SDS011;24829;49.208;12.080;2023-06-14T00:14:55;7.07;;;3.10;;
39078;SDS011;24829;49.208;12.080;2023-06-14T00:17:21;5.05;;;2.97;;
39078;SDS011;24829;49.208;12.080;2023-06-14T00:19:47;5.85;;;2.40;;
39078;SDS011;24829;49.208;12.080;2023-06-14T00:22:13;5.13;;;2.22;;
39078;SDS011;24829;49.208;12.080;2023-06-14T00:24:38;8.23;;;2.47;;
39078;SDS011;24829;49.208;12.080;2023-06-14T00:27:04;7.35;;;3.22;;
39078;SDS011;24829;49.208;12.080;2023-06-14T00:29:30;4.47;;;2.35;;
39078;SDS011;24829;49.208;12.080;2023-06-14T00:31:55;5.03;;;2.20;;
39078;SDS011;24829;49.208;12.080;2023-06-14T00:34:21;4.28;;;2.33;;
39078;SDS011;24829;49.208;12.080;2023-06-14T00:36:46;3.40;;;2.38;;
39078;SDS011;24829;49.208;12.080;2023-06-14T00:39:12;8.45;;;2.65;;
39078;SDS011;24829;49.208;12.080;2023-06-14T00:41:38;4.50;;;2.20;;
39078;SDS011;24829;49.208;12.080;2023-06-14T00:44:04;4.65;;;2.38;;
39078;SDS011;24829;49.208;12.080;2023-06-14T00:46:30;5.05;;;2.58;;
39078;SDS011;24829;49.208;12.080;2023-06-14T00:48:55;6.03;;;2.42;;
39078;SDS011;24829;49.208;12.080;2023-06-14T00:51:23;5.70;;;2.72;;
39078;SDS011;24829;49.208;12.080;2023-06-14T00:53:50;3.83;;;2.70;;
39078;SDS011;24829;49.208;12.080;2023-06-14T00:56:16;5.25;;;2.80;;
39078;SDS011;24829;49.208;12.080;2023-06-14T00:58:45;3.47;;;2.70;;
39078;SDS011;24829;49.208;12.080;2023-06-14T01:01:11;4.05;;;2.45;;
39078;SDS011;24829;49.208;12.080;2023-06-14T01:03:36;9.60;;;2.65;;
39078;SDS011;24829;49.208;12.080;2023-06-14T01:09:09;5.60;;;2.97;;
39078;SDS011;24829;49.208;12.080;2023-06-14T01:12:13;5.85;;;2.42;;
39078;SDS011;24829;49.208;12.080;2023-06-14T01:14:48;4.45;;;2.40;;
39078;SDS011;24829;49.208;12.080;2023-06-14T01:17:15;3.88;;;2.22;;
39078;SDS011;24829;49.208;12.080;2023-06-14T01:19:44;4.68;;;2.70;;
39078;SDS011;24829;49.208;12.080;2023-06-14T01:22:10;4.40;;;2.53;;
39078;SDS011;24829;49.208;12.080;2023-06-14T01:24:36;5.78;;;2.83;;
39078;SDS011;24829;49.208;12.080;2023-06-14T01:27:04;6.30;;;2.50;;
39078;SDS011;24829;49.208;12.080;2023-06-14T01:29:32;4.32;;;2.63;;
39078;SDS011;24829;49.208;12.080;2023-06-14T01:31:58;4.50;;;2.97;;
39078;SDS011;24829;49.208;12.080;2023-06-14T01:34:25;5.93;;;3.10;;
39078;SDS011;24829;49.208;12.080;2023-06-14T01:36:51;4.05;;;2.65;;
39078;SDS011;24829;49.208;12.080;2023-06-14T01:39:19;5.45;;;3.55;;
39078;SDS011;24829;49.208;12.080;2023-06-14T01:41:45;5.28;;;2.88;;
39078;SDS011;24829;49.208;12.080;2023-06-14T01:44:13;6.07;;;2.45;;
39078;SDS011;24829;49.208;12.080;2023-06-14T01:46:40;4.30;;;2.45;;
39078;SDS011;24829;49.208;12.080;2023-06-14T01:49:07;5.25;;;2.47;;
39078;SDS011;24829;49.208;12.080;2023-06-14T01:51:33;4.40;;;2.60;;
39078;SDS011;24829;49.208;12.080;2023-06-14T01:53:58;4.35;;;3.20;;
39078;SDS011;24829;49.208;12.080;2023-06-14T01:56:25;7.03;;;2.85;;
39078;SDS011;24829;49.208;12.080;2023-06-14T01:58:51;3.92;;;2.58;;
39078;SDS011;24829;49.208;12.080;2023-06-14T02:01:17;8.65;;;2.55;;
39078;SDS011;24829;49.208;12.080;2023-06-14T02:03:43;7.30;;;3.42;;
39078;SDS011;24829;49.208;12.080;2023-06-14T02:06:10;5.03;;;3.10;;
39078;SDS011;24829;49.208;12.080;2023-06-14T02:08:35;4.82;;;3.00;;
39078;SDS011;24829;49.208;12.080;2023-06-14T02:11:01;4.82;;;2.58;;
39078;SDS011;24829;49.208;12.080;2023-06-14T02:13:26;4.55;;;3.35;;
39078;SDS011;24829;49.208;12.080;2023-06-14T02:15:52;3.97;;;2.95;;
39078;SDS011;24829;49.208;12.080;2023-06-14T02:18:19;5.20;;;2.65;;
39078;SDS011;24829;49.208;12.080;2023-06-14T02:20:46;5.32;;;2.78;;
39078;SDS011;24829;49.208;12.080;2023-06-14T02:23:12;5.40;;;2.70;;
39078;SDS011;24829;49.208;12.080;2023-06-14T02:25:37;9.10;;;3.00;;
39078;SDS011;24829;49.208;12.080;2023-06-14T02:28:04;5.72;;;3.33;;
39078;SDS011;24829;49.208;12.080;2023-06-14T02:30:30;6.30;;;3.13;;
39078;SDS011;24829;49.208;12.080;2023-06-14T02:32:56;8.05;;;3.20;;
39078;SDS011;24829;49.208;12.080;2023-06-14T02:35:21;4.13;;;3.08;;
39078;SDS011;24829;49.208;12.080;2023-06-14T02:37:49;6.68;;;2.88;;
39078;SDS011;24829;49.208;12.080;2023-06-14T02:40:16;4.70;;;2.55;;
39078;SDS011;24829;49.208;12.080;2023-06-14T02:42:41;6.03;;;3.05;;
39078;SDS011;24829;49.208;12.080;2023-06-14T02:45:07;3.92;;;2.88;;
39078;SDS011;24829;49.208;12.080;2023-06-14T02:47:33;6.57;;;3.20;;
39078;SDS011;24829;49.208;12.080;2023-06-14T02:49:59;5.53;;;2.90;;
39078;SDS011;24829;49.208;12.080;2023-06-14T02:52:24;5.50;;;3.08;;
39078;SDS011;24829;49.208;12.080;2023-06-14T02:54:50;5.05;;;2.92;;
39078;SDS011;24829;49.208;12.080;2023-06-14T02:57:15;3.75;;;2.63;;
39078;SDS011;24829;49.208;12.080;2023-06-14T02:59:41;5.20;;;3.38;;
39078;SDS011;24829;49.208;12.080;2023-06-14T03:02:07;5.57;;;3.15;;
39078;SDS011;24829;49.208;12.080;2023-06-14T03:04:32;7.53;;;3.20;;
39078;SDS011;24829;49.208;12.080;2023-06-14T03:07:02;9.30;;;4.10;;
39078;SDS011;24829;49.208;12.080;2023-06-14T03:09:34;5.18;;;2.90;;
39078;SDS011;24829;49.208;12.080;2023-06-14T03:12:00;6.53;;;3.03;;
39078;SDS011;24829;49.208;12.080;2023-06-14T03:14:27;6.65;;;2.80;;
39078;SDS011;24829;49.208;12.080;2023-06-14T03:16:54;6.35;;;3.60;;
39078;SDS011;24829;49.208;12.080;2023-06-14T03:19:21;6.20;;;4.00;;
39078;SDS011;24829;49.208;12.080;2023-06-14T03:21:47;7.65;;;3.22;;
39078;SDS011;24829;49.208;12.080;2023-06-14T03:24:14;4.88;;;3.47;;
39078;SDS011;24829;49.208;12.080;2023-06-14T03:26:41;6.63;;;3.60;;
39078;SDS011;24829;49.208;12.080;2023-06-14T03:29:07;8.82;;;4.22;;
39078;SDS011;24829;49.208;12.080;2023-06-14T03:31:33;6.57;;;3.50;;
39078;SDS011;24829;49.208;12.080;2023-06-14T03:33:59;5.10;;;3.00;;
39078;SDS011;24829;49.208;12.080;2023-06-14T03:36:28;5.65;;;3.80;;
39078;SDS011;24829;49.208;12.080;2023-06-14T03:38:53;5.35;;;3.47;;
39078;SDS011;24829;49.208;12.080;2023-06-14T03:41:20;3.80;;;3.10;;
39078;SDS011;24829;49.208;12.080;2023-06-14T03:43:46;5.50;;;3.50;;
39078;SDS011;24829;49.208;12.080;2023-06-14T03:46:11;6.47;;;3.60;;
39078;SDS011;24829;49.208;12.080;2023-06-14T03:48:37;7.22;;;3.60;;
39078;SDS011;24829;49.208;12.080;2023-06-14T03:51:03;7.32;;;3.65;;
39078;SDS011;24829;49.208;12.080;2023-06-14T03:53:29;5.32;;;3.58;;
39078;SDS011;24829;49.208;12.080;2023-06-14T03:55:55;7.78;;;3.75;;
39078;SDS011;24829;49.208;12.080;2023-06-14T03:58:22;7.82;;;3.55;;
39078;SDS011;24829;49.208;12.080;2023-06-14T04:00:47;4.93;;;3.40;;
39078;SDS011;24829;49.208;12.080;2023-06-14T04:03:13;5.18;;;3.47;;
39078;SDS011;24829;49.208;12.080;2023-06-14T04:05:40;6.20;;;3.47;;
39078;SDS011;24829;49.208;12.080;2023-06-14T04:08:07;7.20;;;3.80;;
39078;SDS011;24829;49.208;12.080;2023-06-14T04:10:34;5.32;;;3.53;;
39078;SDS011;24829;49.208;12.080;2023-06-14T04:12:59;8.95;;;3.40;;
39078;SDS011;24829;49.208;12.080;2023-06-14T04:15:25;6.18;;;3.72;;
39078;SDS011;24829;49.208;12.080;2023-06-14T04:17:53;5.03;;;3.90;;
39078;SDS011;24829;49.208;12.080;2023-06-14T04:20:22;4.57;;;3.60;;
39078;SDS011;24829;49.208;12.080;2023-06-14T04:22:49;5.85;;;4.38;;
39078;SDS011;24829;49.208;12.080;2023-06-14T04:25:15;5.72;;;3.95;;
39078;SDS011;24829;49.208;12.080;2023-06-14T04:27:41;7.28;;;3.80;;
39078;SDS011;24829;49.208;12.080;2023-06-14T04:30:07;8.48;;;4.38;;
39078;SDS011;24829;49.208;12.080;2023-06-14T04:32:33;5.57;;;3.95;;
39078;SDS011;24829;49.208;12.080;2023-06-14T04:35:05;8.15;;;4.85;;
39078;SDS011;24829;49.208;12.080;2023-06-14T04:37:33;4.80;;;3.95;;
39078;SDS011;24829;49.208;12.080;2023-06-14T04:39:59;4.45;;;3.30;;
39078;SDS011;24829;49.208;12.080;2023-06-14T04:42:25;6.22;;;3.58;;
39078;SDS011;24829;49.208;12.080;2023-06-14T04:44:56;6.10;;;4.28;;
39078;SDS011;24829;49.208;12.080;2023-06-14T04:47:22;5.35;;;4.00;;
39078;SDS011;24829;49.208;12.080;2023-06-14T04:49:49;7.72;;;3.70;;
39078;SDS011;24829;49.208;12.080;2023-06-14T04:52:17;4.70;;;3.80;;
39078;SDS011;24829;49.208;12.080;2023-06-14T04:54:45;6.85;;;3.78;;
39078;SDS011;24829;49.208;12.080;2023-06-14T04:57:11;5.97;;;3.72;;
39078;SDS011;24829;49.208;12.080;2023-06-14T04:59:38;5.25;;;4.10;;
39078;SDS011;24829;49.208;12.080;2023-06-14T05:02:04;3.85;;;3.25;;
39078;SDS011;24829;49.208;12.080;2023-06-14T05:04:31;10.75;;;4.43;;
39078;SDS011;24829;49.208;12.080;2023-06-14T05:06:57;6.80;;;4.25;;
39078;SDS011;24829;49.208;12.080;2023-06-14T05:09:22;5.20;;;3.58;;
39078;SDS011;24829;49.208;12.080;2023-06-14T05:11:48;6.28;;;3.88;;
39078;SDS011;24829;49.208;12.080;2023-06-14T05:14:15;6.88;;;4.30;;
39078;SDS011;24829;49.208;12.080;2023-06-14T05:16:41;6.57;;;3.95;;
39078;SDS011;24829;49.208;12.080;2023-06-14T05:19:07;5.65;;;3.47;;
39078;SDS011;24829;49.208;12.080;2023-06-14T05:21:33;4.95;;;3.60;;
39078;SDS011;24829;49.208;12.080;2023-06-14T05:23:59;4.95;;;4.00;;
39078;SDS011;24829;49.208;12.080;2023-06-14T05:26:25;6.32;;;3.65;;
39078;SDS011;24829;49.208;12.080;2023-06-14T05:28:55;9.00;;;3.10;;
39078;SDS011;24829;49.208;12.080;2023-06-14T05:31:25;4.68;;;3.67;;
39078;SDS011;24829;49.208;12.080;2023-06-14T05:33:51;4.40;;;3.95;;
39078;SDS011;24829;49.208;12.080;2023-06-14T05:36:17;6.47;;;3.70;;
39078;SDS011;24829;49.208;12.080;2023-06-14T05:38:43;5.20;;;3.47;;
39078;SDS011;24829;49.208;12.080;2023-06-14T05:41:08;4.53;;;3.40;;
39078;SDS011;24829;49.208;12.080;2023-06-14T05:43:34;10.77;;;4.05;;
39078;SDS011;24829;49.208;12.080;2023-06-14T05:45:59;6.18;;;3.35;;
39078;SDS011;24829;49.208;12.080;2023-06-14T05:48:25;7.40;;;4.18;;
39078;SDS011;24829;49.208;12.080;2023-06-14T05:50:50;6.82;;;3.70;;
39078;SDS011;24829;49.208;12.080;2023-06-14T05:53:16;7.20;;;3.92;;
39078;SDS011;24829;49.208;12.080;2023-06-14T05:55:42;7.75;;;3.13;;
39078;SDS011;24829;49.208;12.080;2023-06-14T05:58:07;8.73;;;3.40;;
39078;SDS011;24829;49.208;12.080;2023-06-14T06:00:33;7.28;;;3.10;;
39078;SDS011;24829;49.208;12.080;2023-06-14T06:02:58;9.88;;;4.43;;
39078;SDS011;24829;49.208;12.080;2023-06-14T06:05:25;5.22;;;3.60;;
39078;SDS011;24829;49.208;12.080;2023-06-14T06:07:51;5.78;;;3.53;;
39078;SDS011;24829;49.208;12.080;2023-06-14T06:10:17;5.07;;;3.08;;
39078;SDS011;24829;49.208;12.080;2023-06-14T06:12:42;6.40;;;3.58;;
39078;SDS011;24829;49.208;12.080;2023-06-14T06:15:08;3.75;;;2.92;;
39078;SDS011;24829;49.208;12.080;2023-06-14T06:17:37;4.72;;;3.53;;
39078;SDS011;24829;49.208;12.080;2023-06-14T06:20:03;7.97;;;3.42;;
39078;SDS011;24829;49.208;12.080;2023-06-14T06:22:30;5.47;;;3.05;;
39078;SDS011;24829;49.208;12.080;2023-06-14T06:24:56;8.43;;;3.78;;
39078;SDS011;24829;49.208;12.080;2023-06-14T06:27:21;6.57;;;3.47;;
39078;SDS011;24829;49.208;12.080;2023-06-14T06:29:47;5.03;;;3.13;;
39078;SDS011;24829;49.208;12.080;2023-06-14T06:32:13;8.73;;;2.90;;
39078;SDS011;24829;49.208;12.080;2023-06-14T06:34:40;5.88;;;3.50;;
39078;SDS011;24829;49.208;12.080;2023-06-14T06:37:05;6.18;;;3.55;;
39078;SDS011;24829;49.208;12.080;2023-06-14T06:39:31;5.75;;;3.20;;
39078;SDS011;24829;49.208;12.080;2023-06-14T06:41:56;7.05;;;3.22;;
39078;SDS011;24829;49.208;12.080;2023-06-14T06:44:22;6.07;;;3.30;;
39078;SDS011;24829;49.208;12.080;2023-06-14T06:46:48;7.85;;;3.67;;
39078;SDS011;24829;49.208;12.080;2023-06-14T06:49:13;4.43;;;2.97;;
39078;SDS011;24829;49.208;12.080;2023-06-14T06:51:42;8.00;;;3.45;;
39078;SDS011;24829;49.208;12.080;2023-06-14T06:54:08;4.57;;;3.28;;
39078;SDS011;24829;49.208;12.080;2023-06-14T06:56:34;8.25;;;3.35;;
39078;SDS011;24829;49.208;12.080;2023-06-14T06:59:00;5.47;;;2.90;;
39078;SDS011;24829;49.208;12.080;2023-06-14T07:01:26;5.38;;;3.30;;
39078;SDS011;24829;49.208;12.080;2023-06-14T07:03:53;5.05;;;2.75;;
39078;SDS011;24829;49.208;12.080;2023-06-14T07:06:19;6.30;;;3.10;;
39078;SDS011;24829;49.208;12.080;2023-06-14T07:08:45;6.10;;;3.35;;
39078;SDS011;24829;49.208;12.080;2023-06-14T07:11:13;4.55;;;2.80;;
39078;SDS011;24829;49.208;12.080;2023-06-14T07:13:39;5.35;;;2.85;;
39078;SDS011;24829;49.208;12.080;2023-06-14T07:16:04;5.95;;;2.97;;
39078;SDS011;24829;49.208;12.080;2023-06-14T07:18:30;7.68;;;3.50;;
39078;SDS011;24829;49.208;12.080;2023-06-14T07:20:56;6.97;;;3.50;;
39078;SDS011;24829;49.208;12.080;2023-06-14T07:23:22;6.35;;;3.05;;
39078;SDS011;24829;49.208;12.080;2023-06-14T07:25:48;8.75;;;3.22;;
39078;SDS011;24829;49.208;12.080;2023-06-14T07:28:14;6.07;;;3.63;;
39078;SDS011;24829;49.208;12.080;2023-06-14T07:30:41;4.53;;;3.40;;
39078;SDS011;24829;49.208;12.080;2023-06-14T07:33:06;5.75;;;2.67;;
39078;SDS011;24829;49.208;12.080;2023-06-14T07:35:33;5.22;;;3.22;;
39078;SDS011;24829;49.208;12.080;2023-06-14T07:37:58;3.53;;;2.97;;
39078;SDS011;24829;49.208;12.080;2023-06-14T07:40:24;7.72;;;3.20;;
39078;SDS011;24829;49.208;12.080;2023-06-14T07:42:50;3.60;;;3.03;;
39078;SDS011;24829;49.208;12.080;2023-06-14T07:45:15;6.05;;;3.20;;
39078;SDS011;24829;49.208;12.080;2023-06-14T07:47:41;6.95;;;2.60;;
39078;SDS011;24829;49.208;12.080;2023-06-14T07:50:07;5.03;;;3.33;;
39078;SDS011;24829;49.208;12.080;2023-06-14T07:52:33;7.05;;;3.13;;
39078;SDS011;24829;49.208;12.080;2023-06-14T07:54:59;6.30;;;3.05;;
39078;SDS011;24829;49.208;12.080;2023-06-14T07:57:25;5.53;;;2.90;;
39078;SDS011;24829;49.208;12.080;2023-06-14T07:59:50;4.72;;;2.90;;
39078;SDS011;24829;49.208;12.080;2023-06-14T08:02:16;4.22;;;3.13;;
39078;SDS011;24829;49.208;12.080;2023-06-14T08:04:41;4.10;;;2.80;;
39078;SDS011;24829;49.208;12.080;2023-06-14T08:07:07;4.68;;;2.88;;
39078;SDS011;24829;49.208;12.080;2023-06-14T08:09:33;4.32;;;2.47;;
39078;SDS011;24829;49.208;12.080;2023-06-14T08:11:58;2.95;;;2.35;;
39078;SDS011;24829;49.208;12.080;2023-06-14T08:14:24;2.90;;;2.28;;
39078;SDS011;24829;49.208;12.080;2023-06-14T08:16:49;3.95;;;2.78;;
39078;SDS011;24829;49.208;12.080;2023-06-14T08:19:15;4.38;;;2.70;;
39078;SDS011;24829;49.208;12.080;2023-06-14T08:21:41;7.97;;;3.38;;
39078;SDS011;24829;49.208;12.080;2023-06-14T08:24:08;3.35;;;2.95;;
39078;SDS011;24829;49.208;12.080;2023-06-14T08:26:37;3.70;;;2.80;;
39078;SDS011;24829;49.208;12.080;2023-06-14T08:29:03;5.22;;;2.45;;
39078;SDS011;24829;49.208;12.080;2023-06-14T08:31:29;4.00;;;2.95;;
39078;SDS011;24829;49.208;12.080;2023-06-14T08:33:56;5.13;;;2.50;;
39078;SDS011;24829;49.208;12.080;2023-06-14T08:36:22;6.55;;;2.50;;
39078;SDS011;24829;49.208;12.080;2023-06-14T08:38:47;7.28;;;2.90;;
39078;SDS011;24829;49.208;12.080;2023-06-14T08:41:13;5.45;;;2.40;;
39078;SDS011;24829;49.208;12.080;2023-06-14T08:46:11;3.85;;;2.50;;
39078;SDS011;24829;49.208;12.080;2023-06-14T08:48:41;3.70;;;2.55;;
39078;SDS011;24829;49.208;12.080;2023-06-14T08:51:08;4.03;;;2.83;;
39078;SDS011;24829;49.208;12.080;2023-06-14T08:53:35;4.18;;;2.08;;
39078;SDS011;24829;49.208;12.080;2023-06-14T08:56:07;13.13;;;2.45;;
39078;SDS011;24829;49.208;12.080;2023-06-14T08:58:38;5.87;;;2.40;;
39078;SDS011;24829;49.208;12.080;2023-06-14T09:01:08;5.78;;;2.38;;
39078;SDS011;24829;49.208;12.080;2023-06-14T09:03:37;3.33;;;2.35;;
39078;SDS011;24829;49.208;12.080;2023-06-14T09:06:05;7.22;;;2.50;;
39078;SDS011;24829;49.208;12.080;2023-06-14T09:08:33;6.95;;;2.65;;
39078;SDS011;24829;49.208;12.080;2023-06-14T09:11:01;6.45;;;2.10;;
39078;SDS011;24829;49.208;12.080;2023-06-14T09:13:27;6.20;;;2.80;;
39078;SDS011;24829;49.208;12.080;2023-06-14T09:15:52;4.28;;;2.65;;
39078;SDS011;24829;49.208;12.080;2023-06-14T09:18:18;3.97;;;2.60;;
39078;SDS011;24829;49.208;12.080;2023-06-14T09:20:47;3.40;;;1.92;;
39078;SDS011;24829;49.208;12.080;2023-06-14T09:23:13;3.58;;;2.40;;
39078;SDS011;24829;49.208;12.080;2023-06-14T09:25:45;5.75;;;2.35;;
39078;SDS011;24829;49.208;12.080;2023-06-14T09:28:11;12.35;;;2.75;;
39078;SDS011;24829;49.208;12.080;2023-06-14T09:30:40;11.32;;;3.22;;
39078;SDS011;24829;49.208;12.080;2023-06-14T09:33:05;5.22;;;2.65;;
39078;SDS011;24829;49.208;12.080;2023-06-14T09:35:31;7.13;;;2.65;;
39078;SDS011;24829;49.208;12.080;2023-06-14T09:37:57;6.75;;;2.90;;
39078;SDS011;24829;49.208;12.080;2023-06-14T09:40:23;7.70;;;3.40;;
39078;SDS011;24829;49.208;12.080;2023-06-14T09:42:49;10.65;;;3.03;;
39078;SDS011;24829;49.208;12.080;2023-06-14T09:45:15;4.38;;;2.75;;
39078;SDS011;24829;49.208;12.080;2023-06-14T09:47:46;9.77;;;3.10;;
39078;SDS011;24829;49.208;12.080;2023-06-14T09:50:14;6.35;;;2.50;;
39078;SDS011;24829;49.208;12.080;2023-06-14T09:52:39;7.15;;;2.42;;
39078;SDS011;24829;49.208;12.080;2023-06-14T09:55:12;7.90;;;3.35;;
39078;SDS011;24829;49.208;12.080;2023-06-14T09:57:40;12.38;;;2.60;;
39078;SDS011;24829;49.208;12.080;2023-06-14T10:00:07;6.60;;;2.97;;
39078;SDS011;24829;49.208;12.080;2023-06-14T10:02:36;3.50;;;2.88;;
39078;SDS011;24829;49.208;12.080;2023-06-14T10:05:04;7.93;;;2.90;;
39078;SDS011;24829;49.208;12.080;2023-06-14T10:07:33;6.45;;;2.90;;
39078;SDS011;24829;49.208;12.080;2023-06-14T10:10:03;5.07;;;2.40;;
39078;SDS011;24829;49.208;12.080;2023-06-14T10:12:30;5.57;;;2.90;;
39078;SDS011;24829;49.208;12.080;2023-06-14T10:14:56;4.47;;;2.47;;
39078;SDS011;24829;49.208;12.080;2023-06-14T10:22:46;3.67;;;2.38;;
39078;SDS011;24829;49.208;12.080;2023-06-14T10:28:01;5.75;;;2.40;;
39078;SDS011;24829;49.208;12.080;2023-06-14T10:30:41;7.30;;;3.13;;
39078;SDS011;24829;49.208;12.080;2023-06-14T10:33:30;5.40;;;2.90;;
39078;SDS011;24829;49.208;12.080;2023-06-14T10:38:56;5.50;;;2.92;;
39078;SDS011;24829;49.208;12.080;2023-06-14T10:41:28;3.75;;;2.42;;
39078;SDS011;24829;49.208;12.080;2023-06-14T10:44:10;6.20;;;2.92;;
39078;SDS011;24829;49.208;12.080;2023-06-14T10:47:04;6.30;;;2.83;;
39078;SDS011;24829;49.208;12.080;2023-06-14T10:49:43;11.43;;;3.22;;
39078;SDS011;24829;49.208;12.080;2023-06-14T10:52:14;12.40;;;3.05;;
39078;SDS011;24829;49.208;12.080;2023-06-14T10:57:47;7.22;;;2.40;;
39078;SDS011;24829;49.208;12.080;2023-06-14T11:00:16;5.97;;;2.50;;
39078;SDS011;24829;49.208;12.080;2023-06-14T11:02:50;6.45;;;2.88;;
39078;SDS011;24829;49.208;12.080;2023-06-14T11:11:00;4.90;;;2.38;;
39078;SDS011;24829;49.208;12.080;2023-06-14T11:13:26;7.43;;;2.58;;
39078;SDS011;24829;49.208;12.080;2023-06-14T11:15:52;3.67;;;2.22;;
39078;SDS011;24829;49.208;12.080;2023-06-14T11:18:18;7.63;;;2.50;;
39078;SDS011;24829;49.208;12.080;2023-06-14T11:20:49;15.35;;;3.10;;
39078;SDS011;24829;49.208;12.080;2023-06-14T11:23:14;8.88;;;2.53;;
39078;SDS011;24829;49.208;12.080;2023-06-14T11:25:40;3.90;;;2.33;;
39078;SDS011;24829;49.208;12.080;2023-06-14T11:28:06;7.85;;;2.40;;
39078;SDS011;24829;49.208;12.080;2023-06-14T11:30:32;5.25;;;2.25;;
39078;SDS011;24829;49.208;12.080;2023-06-14T11:32:57;3.83;;;1.75;;
39078;SDS011;24829;49.208;12.080;2023-06-14T11:35:23;7.35;;;2.75;;
39078;SDS011;24829;49.208;12.080;2023-06-14T11:37:53;5.50;;;2.15;;
39078;SDS011;24829;49.208;12.080;2023-06-14T11:40:25;3.20;;;2.08;;
39078;SDS011;24829;49.208;12.080;2023-06-14T11:42:58;8.93;;;2.28;;
39078;SDS011;24829;49.208;12.080;2023-06-14T11:45:25;3.53;;;2.42;;
39078;SDS011;24829;49.208;12.080;2023-06-14T11:47:51;4.50;;;2.20;;
39078;SDS011;24829;49.208;12.080;2023-06-14T11:50:19;4.75;;;2.35;;
39078;SDS011;24829;49.208;12.080;2023-06-14T11:52:44;15.20;;;2.63;;
39078;SDS011;24829;49.208;12.080;2023-06-14T11:57:42;3.30;;;1.73;;
39078;SDS011;24829;49.208;12.080;2023-06-14T12:00:08;5.05;;;2.33;;
39078;SDS011;24829;49.208;12.080;2023-06-14T12:02:37;7.82;;;2.55;;
39078;SDS011;24829;49.208;12.080;2023-06-14T12:05:04;3.47;;;2.15;;
39078;SDS011;24829;49.208;12.080;2023-06-14T12:07:32;3.10;;;2.03;;
39078;SDS011;24829;49.208;12.080;2023-06-14T12:12:24;3.13;;;1.90;;
39078;SDS011;24829;49.208;12.080;2023-06-14T12:14:54;7.40;;;2.55;;
39078;SDS011;24829;49.208;12.080;2023-06-14T12:17:21;3.10;;;1.98;;
39078;SDS011;24829;49.208;12.080;2023-06-14T12:19:47;7.32;;;2.10;;
39078;SDS011;24829;49.208;12.080;2023-06-14T12:22:14;16.73;;;2.40;;
39078;SDS011;24829;49.208;12.080;2023-06-14T12:24:44;6.78;;;2.60;;
39078;SDS011;24829;49.208;12.080;2023-06-14T12:27:10;4.68;;;1.92;;
39078;SDS011;24829;49.208;12.080;2023-06-14T12:29:40;3.83;;;1.90;;
39078;SDS011;24829;49.208;12.080;2023-06-14T12:32:08;6.35;;;2.00;;
39078;SDS011;24829;49.208;12.080;2023-06-14T12:34:34;5.43;;;1.95;;
39078;SDS011;24829;49.208;12.080;2023-06-14T12:37:00;2.25;;;2.03;;
39078;SDS011;24829;49.208;12.080;2023-06-14T12:39:26;6.30;;;2.30;;
39078;SDS011;24829;49.208;12.080;2023-06-14T12:41:52;6.90;;;2.40;;
39078;SDS011;24829;49.208;12.080;2023-06-14T12:44:19;4.43;;;2.20;;
39078;SDS011;24829;49.208;12.080;2023-06-14T12:46:44;5.65;;;2.05;;
39078;SDS011;24829;49.208;12.080;2023-06-14T12:49:10;4.28;;;2.28;;
39078;SDS011;24829;49.208;12.080;2023-06-14T12:51:37;3.97;;;1.70;;
39078;SDS011;24829;49.208;12.080;2023-06-14T12:54:03;3.38;;;2.03;;
39078;SDS011;24829;49.208;12.080;2023-06-14T12:56:29;9.70;;;2.30;;
39078;SDS011;24829;49.208;12.080;2023-06-14T12:58:55;4.00;;;2.13;;
39078;SDS011;24829;49.208;12.080;2023-06-14T13:01:20;5.40;;;2.25;;
39078;SDS011;24829;49.208;12.080;2023-06-14T13:03:46;6.85;;;2.05;;
39078;SDS011;24829;49.208;12.080;2023-06-14T13:06:12;6.15;;;2.63;;
39078;SDS011;24829;49.208;12.080;2023-06-14T13:08:38;2.78;;;2.10;;
39078;SDS011;24829;49.208;12.080;2023-06-14T13:11:04;4.63;;;2.30;;
39078;SDS011;24829;49.208;12.080;2023-06-14T13:13:29;4.07;;;1.98;;
39078;SDS011;24829;49.208;12.080;2023-06-14T13:15:55;7.32;;;2.78;;
39078;SDS011;24829;49.208;12.080;2023-06-14T13:18:20;4.25;;;2.13;;
39078;SDS011;24829;49.208;12.080;2023-06-14T13:20:46;4.78;;;2.40;;
39078;SDS011;24829;49.208;12.080;2023-06-14T13:23:12;4.68;;;2.00;;
39078;SDS011;24829;49.208;12.080;2023-06-14T13:25:38;6.45;;;2.13;;
39078;SDS011;24829;49.208;12.080;2023-06-14T13:28:04;4.95;;;2.13;;
39078;SDS011;24829;49.208;12.080;2023-06-14T13:30:30;3.72;;;1.83;;
39078;SDS011;24829;49.208;12.080;2023-06-14T13:32:57;4.38;;;2.58;;
39078;SDS011;24829;49.208;12.080;2023-06-14T13:35:23;6.55;;;2.58;;
39078;SDS011;24829;49.208;12.080;2023-06-14T13:37:49;3.40;;;1.83;;
39078;SDS011;24829;49.208;12.080;2023-06-14T13:40:15;7.53;;;1.90;;
39078;SDS011;24829;49.208;12.080;2023-06-14T13:42:41;3.90;;;2.40;;
39078;SDS011;24829;49.208;12.080;2023-06-14T13:45:07;4.50;;;2.05;;
39078;SDS011;24829;49.208;12.080;2023-06-14T13:47:33;6.78;;;2.38;;
39078;SDS011;24829;49.208;12.080;2023-06-14T13:49:59;6.50;;;2.30;;
39078;SDS011;24829;49.208;12.080;2023-06-14T13:52:24;4.28;;;2.15;;
39078;SDS011;24829;49.208;12.080;2023-06-14T13:54:51;3.78;;;1.75;;
39078;SDS011;24829;49.208;12.080;2023-06-14T13:57:16;3.92;;;1.88;;
39078;SDS011;24829;49.208;12.080;2023-06-14T13:59:42;5.80;;;1.80;;
39078;SDS011;24829;49.208;12.080;2023-06-14T14:02:11;2.70;;;2.05;;
39078;SDS011;24829;49.208;12.080;2023-06-14T14:04:38;2.90;;;1.63;;
39078;SDS011;24829;49.208;12.080;2023-06-14T14:07:04;3.17;;;2.15;;
39078;SDS011;24829;49.208;12.080;2023-06-14T14:09:31;2.72;;;1.92;;
39078;SDS011;24829;49.208;12.080;2023-06-14T14:12:00;3.00;;;2.13;;
39078;SDS011;24829;49.208;12.080;2023-06-14T14:14:30;2.35;;;1.88;;
39078;SDS011;24829;49.208;12.080;2023-06-14T14:16:57;3.22;;;1.83;;
39078;SDS011;24829;49.208;12.080;2023-06-14T14:19:22;4.38;;;2.00;;
39078;SDS011;24829;49.208;12.080;2023-06-14T14:21:48;15.00;;;2.83;;
39078;SDS011;24829;49.208;12.080;2023-06-14T14:24:14;5.55;;;2.25;;
39078;SDS011;24829;49.208;12.080;2023-06-14T14:26:40;5.03;;;2.67;;
39078;SDS011;24829;49.208;12.080;2023-06-14T14:29:06;7.35;;;2.17;;
39078;SDS011;24829;49.208;12.080;2023-06-14T14:31:32;6.15;;;2.28;;
39078;SDS011;24829;49.208;12.080;2023-06-14T14:33:58;4.40;;;2.70;;
39078;SDS011;24829;49.208;12.080;2023-06-14T14:36:23;6.15;;;1.98;;
39078;SDS011;24829;49.208;12.080;2023-06-14T14:38:49;6.15;;;2.60;;
39078;SDS011;24829;49.208;12.080;2023-06-14T14:41:16;2.72;;;1.83;;
39078;SDS011;24829;49.208;12.080;2023-06-14T14:43:42;7.50;;;2.38;;
39078;SDS011;24829;49.208;12.080;2023-06-14T14:46:08;3.65;;;2.25;;
39078;SDS011;24829;49.208;12.080;2023-06-14T14:48:33;3.03;;;2.00;;
39078;SDS011;24829;49.208;12.080;2023-06-14T14:50:59;4.40;;;2.08;;
39078;SDS011;24829;49.208;12.080;2023-06-14T14:53:24;6.10;;;2.08;;
39078;SDS011;24829;49.208;12.080;2023-06-14T14:55:50;9.15;;;2.00;;
39078;SDS011;24829;49.208;12.080;2023-06-14T14:58:15;3.38;;;1.73;;
39078;SDS011;24829;49.208;12.080;2023-06-14T15:00:43;4.63;;;2.13;;